Saint Charles, MN

10:24 PM CDT on July 28, 2016 (GMT -0500)
Kieffer Hills Drive | | Change Station
Active Advisory: Special Statement

Elev 1263 ft 43.96 °N, 92.07 °W | Updated 4 minutes ago

Overcast
Overcast
64.4 °F
Feels Like 64.4 °F
N
2.2
Wind Variable Wind from NE
Gusts 7.6 mph

Today
High -- | Low -- °F
--% Chance of Precip.
Yesterday
High -- | Low -- °F
Precip. -- in
Pressure 30.02 in
Visibility 10.0 miles
Clouds Overcast 1600 ft
Dew Point 62 °F
Humidity 93%
Rainfall 0.00 in
Snow Depth Not available.
5:52 AM 8:36 PM
Waning Crescent, 26% visible
METAR KONA 290313Z AUTO 04005KT 10SM OVC016 18/15 A3002 RMK AO2
Pressure 30.02 in
Visibility 10.0 miles
Clouds Overcast 1600 ft
Dew Point 62 °F
Humidity 93%
Rainfall 0.00 in
Snow Depth Not available.
5:52 AM 8:36 PM
Waning Crescent, 26% visible
METAR KONA 290313Z AUTO 04005KT 10SM OVC016 18/15 A3002 RMK AO2

10-Day Weather Forecast

Almanac

Astronomy

Jul. 28, 2016 Rise Set
Actual Time
Civil Twilight
Nautical Twilight
Astronomical Twilight
Moon
Length of Visible Light
Length of Day
Tomorrow will be .
, % of the Moon is Illuminated

Today's Extremes

State Highs State Lows

Community

WunderPhotos

Upload Photos

1,928,282 photos uploaded!

WunderBlog® & News

Nearby

Air Quality

  Air Quality AQ Index Pollutant
Not available.

Snow Depth

Station Depth Elevation

Earthquake Activity

City Distance Mag. Time & Date
Minimum magnitude displayed is 2.5.

Coastal Water Temperatures

Place Temperature

Stations

Nearby Weather Stations

Station Location Temp. Windchill Dew Point Humidity Wind Precip. Elev Updated Type
                   

Watches & Warnings

Special Statement
Issued: 9:10 PM CDT Jul. 28, 2016 – National Weather Service

... Patchy dense fog late this evening along ridge tops...

Through 11 PM... watch for patchy dense fog across the higher
terrain and ridge tops of the Mississippi River valley. Visibility
may drop below one mile at times. Slow down and allow extra time
to reach your destination.


Rogers


910 PM CDT Thu Jul 28 2016

... Patchy dense fog late this evening along ridge tops...

Through 11 PM... watch for patchy dense fog across the higher
terrain and ridge tops of the Mississippi River valley. Visibility
may drop below one mile at times. Slow down and allow extra time
to reach your destination.


Rogers